createdAt,value
2023-04-30T00:27:25.297Z,69.5
2023-04-30T00:29:31.556Z,46.1
2023-04-30T00:31:38.023Z,49.7
2023-04-30T00:33:47.059Z,52.8
2023-04-30T00:35:53.381Z,63.8
2023-04-30T00:37:59.699Z,53.3
2023-04-30T00:40:05.986Z,53.5
2023-04-30T00:44:18.629Z,54.8
2023-04-30T00:46:24.905Z,45
2023-04-30T00:48:33.969Z,43
2023-04-30T00:50:40.275Z,43.9
2023-04-30T00:52:46.557Z,47
2023-04-30T00:54:52.885Z,49.2
2023-04-30T00:56:59.154Z,46.8
2023-04-30T00:59:05.444Z,56.1
2023-04-30T01:01:11.805Z,48.1
2023-04-30T01:03:21.004Z,52.1
2023-04-30T01:07:33.533Z,43.1
2023-04-30T01:09:39.839Z,43.2
2023-04-30T01:11:46.142Z,45.4
2023-04-30T01:13:52.405Z,51.4
2023-04-30T01:15:58.726Z,52.6
2023-04-30T01:20:14.229Z,41.6
2023-04-30T01:22:20.505Z,48.3
2023-04-30T01:25:31.398Z,50.2
2023-04-30T01:31:53.227Z,46.7
2023-04-30T01:42:24.521Z,57.3
2023-04-30T01:44:30.786Z,70.3
2023-04-30T01:46:40.082Z,61
2023-04-30T01:50:52.563Z,61.2
2023-04-30T01:52:58.858Z,69.3
2023-04-30T01:57:11.438Z,64.9
2023-04-30T02:05:39.493Z,68
2023-04-30T02:07:45.854Z,55
2023-04-30T02:09:52.191Z,64.3
2023-04-30T02:11:58.355Z,54.3
2023-04-30T02:14:04.644Z,57.5
2023-04-30T02:16:13.887Z,53.4
2023-04-30T02:18:20.136Z,68
2023-04-30T02:20:26.368Z,61.9
2023-04-30T02:21:30.970Z,75.9
2023-04-30T02:23:37.265Z,57.3
2023-04-30T02:25:43.504Z,72.3
2023-04-30T02:27:49.800Z,97.4
2023-04-30T02:29:59.007Z,96.4
2023-04-30T02:32:05.290Z,81.3
2023-04-30T02:34:11.542Z,88.1
2023-04-30T02:36:17.801Z,82.3
2023-04-30T02:38:24.079Z,92.6
2023-04-30T02:44:45.799Z,94.9
2023-04-30T02:46:52.045Z,96
2023-04-30T02:48:58.350Z,85
2023-04-30T02:53:10.884Z,84.5
2023-04-30T02:55:17.138Z,79.8
2023-04-30T02:59:32.576Z,96.8
2023-04-30T03:01:38.890Z,95.2
2023-04-30T03:03:45.229Z,90.9
2023-04-30T03:05:51.372Z,90.4
2023-04-30T03:07:57.667Z,99.1
2023-04-30T03:10:03.914Z,112
2023-04-30T03:12:10.216Z,97.9
2023-04-30T03:14:19.329Z,91.4
2023-04-30T03:16:25.649Z,83.6
2023-04-30T03:19:36.455Z,86.1
2023-04-30T03:21:42.745Z,86
2023-04-30T03:23:49.022Z,91.9
2023-04-30T03:25:55.286Z,88.7
2023-04-30T03:28:04.462Z,86.7
2023-04-30T03:32:16.926Z,77.8
2023-04-30T03:36:29.486Z,84
2023-04-30T03:40:42.658Z,90.3
2023-04-30T03:42:51.828Z,91.4
2023-04-30T03:44:58.079Z,78.7
2023-04-30T03:47:04.341Z,88.6
2023-04-30T03:49:10.582Z,76.2
2023-04-30T03:51:16.882Z,74.5
2023-04-30T03:53:23.099Z,83.1
2023-04-30T03:55:29.425Z,74
2023-04-30T03:57:38.573Z,72.1
2023-04-30T03:59:44.791Z,80.7
2023-04-30T04:01:51.112Z,68
2023-04-30T04:03:57.370Z,85.4
2023-04-30T04:10:16.073Z,73.9
2023-04-30T04:14:31.477Z,74.4
2023-04-30T04:19:03.310Z,98.2
2023-04-30T04:23:15.812Z,80.8
2023-04-30T04:25:24.969Z,106.4
2023-04-30T04:27:31.212Z,83.8
2023-04-30T04:29:37.429Z,80.2
2023-04-30T04:31:43.735Z,90.6
2023-04-30T04:33:49.973Z,77.9
2023-04-30T04:35:56.181Z,73.6
2023-04-30T04:38:02.510Z,65.8
2023-04-30T04:48:36.585Z,91.3
2023-04-30T04:50:42.863Z,90.2
2023-04-30T04:54:58.697Z,111
2023-04-30T04:57:04.975Z,100.5
2023-04-30T05:01:17.501Z,112.9
2023-04-30T05:05:29.970Z,99.5
2023-04-30T05:15:02.556Z,89.8
2023-04-30T05:17:08.736Z,114.5
2023-04-30T05:25:36.701Z,90.5
2023-04-30T05:27:43.007Z,79.4
2023-04-30T05:29:49.267Z,100.9
2023-04-30T05:31:55.588Z,75.5
2023-04-30T05:34:01.838Z,85.7
2023-04-30T05:36:08.077Z,61.2
2023-04-30T05:42:29.641Z,70.9
2023-04-30T05:44:35.847Z,53.4
2023-04-30T05:53:03.630Z,31.1
2023-04-30T05:55:09.824Z,31
2023-04-30T05:57:16.066Z,32.3
2023-04-30T06:01:28.525Z,23.2
2023-04-30T06:03:34.745Z,26.6
2023-04-30T06:07:50.036Z,20.9
2023-04-30T06:09:56.523Z,19.1
2023-04-30T06:12:02.533Z,19.4
2023-04-30T06:13:07.004Z,14.7
2023-04-30T06:29:59.722Z,20.7
2023-04-30T06:32:08.231Z,18.4
2023-04-30T06:34:12.236Z,20.1
2023-04-30T06:36:21.283Z,18.3
2023-04-30T06:38:27.558Z,11.3
2023-04-30T06:40:33.798Z,14.8
2023-04-30T06:42:40.059Z,21.6
2023-04-30T06:44:46.339Z,18.2
2023-04-30T06:59:33.003Z,17.9
2023-04-30T07:01:39.370Z,16.7
2023-04-30T07:03:45.624Z,15
2023-04-30T07:05:54.671Z,24.1
2023-04-30T07:08:00.898Z,12.5
2023-04-30T07:11:11.725Z,11.7
2023-04-30T07:15:24.272Z,13.8
2023-04-30T07:17:30.567Z,13.2
2023-04-30T07:19:39.743Z,13
2023-04-30T07:21:45.922Z,24.2
2023-04-30T07:23:52.182Z,6.7
2023-04-30T07:25:58.473Z,16
2023-04-30T07:28:04.761Z,15.4
2023-04-30T07:30:11.043Z,18.1
2023-04-30T07:32:17.359Z,15.8
2023-04-30T07:36:32.715Z,12
2023-04-30T07:40:45.320Z,14
2023-04-30T07:42:51.593Z,13.7
2023-04-30T07:44:57.856Z,9.4
2023-04-30T07:47:04.142Z,14.1
2023-04-30T07:51:19.559Z,8.2
2023-04-30T07:53:25.840Z,15.1
2023-04-30T07:55:32.108Z,16.1
2023-04-30T07:57:38.411Z,13.4
2023-04-30T07:59:44.687Z,13
2023-04-30T08:01:51.076Z,10.4
2023-04-30T08:04:00.251Z,6.7
2023-04-30T08:06:06.425Z,11.7
2023-04-30T08:08:12.692Z,21.5
2023-04-30T08:10:32.546Z,22
2023-04-30T08:14:45.140Z,12.6
2023-04-30T08:16:54.317Z,13.9
2023-04-30T08:35:53.761Z,11.3
2023-04-30T08:40:06.334Z,14
2023-04-30T08:42:12.784Z,11.6
2023-04-30T08:44:18.922Z,8.2
2023-04-30T08:46:28.083Z,11.9
2023-04-30T08:52:46.922Z,6.3
2023-04-30T08:54:53.227Z,7
2023-04-30T09:03:21.301Z,10.7
2023-04-30T09:05:27.508Z,8.9
2023-04-30T09:06:32.116Z,7.8
2023-04-30T09:17:06.364Z,11.3
2023-04-30T09:19:12.657Z,15.2
2023-04-30T09:21:18.945Z,7.1
2023-04-30T09:23:25.226Z,12.6
2023-04-30T09:25:31.550Z,8.3
2023-04-30T09:29:47.003Z,11.1
2023-04-30T09:33:59.561Z,8.2
2023-04-30T09:40:18.436Z,9.5
2023-04-30T09:42:24.784Z,7.5
2023-04-30T09:44:33.877Z,12.8
2023-04-30T09:46:40.221Z,7.5
2023-04-30T09:48:46.467Z,14.3
2023-04-30T09:50:52.742Z,7.1
2023-04-30T09:52:59.054Z,9.1
2023-04-30T09:59:20.782Z,9.2
2023-04-30T10:01:27.081Z,9.1
2023-04-30T10:03:33.415Z,13.3
2023-04-30T10:04:37.904Z,9.2
2023-04-30T10:10:56.777Z,10.6
2023-04-30T10:13:07.653Z,8.4
2023-04-30T10:17:18.483Z,7.9
2023-04-30T10:21:32.597Z,12.2
2023-04-30T10:25:45.194Z,8.7
2023-04-30T10:32:06.940Z,6.8
2023-04-30T10:36:19.485Z,10.8
2023-04-30T10:38:25.768Z,14.5
2023-04-30T10:40:32.111Z,6.1
2023-04-30T10:42:41.177Z,9.7
2023-04-30T10:44:47.464Z,13.8
2023-04-30T10:46:53.763Z,8.6
2023-04-30T10:49:00.072Z,7
2023-04-30T10:53:12.633Z,12.7
2023-04-30T10:55:18.938Z,8.4
2023-04-30T11:02:45.212Z,4
2023-04-30T11:04:51.504Z,5.9
2023-04-30T11:06:57.740Z,6.6
2023-04-30T11:09:04.081Z,4.2
2023-04-30T11:11:13.197Z,17.2
2023-04-30T11:15:25.775Z,8.6
2023-04-30T11:17:32.069Z,6.4
2023-04-30T11:19:38.311Z,13.1
2023-04-30T11:21:44.594Z,6.7
2023-04-30T11:32:18.875Z,8.5
2023-04-30T11:36:31.378Z,8.2
2023-04-30T11:38:37.682Z,7.2
2023-04-30T11:40:46.774Z,10
2023-04-30T11:47:05.699Z,3.3
2023-04-30T11:53:24.418Z,10.4
2023-04-30T11:55:33.523Z,9.5
2023-04-30T11:57:39.804Z,7.5
2023-04-30T12:02:06.283Z,8.6
2023-04-30T12:06:18.892Z,8.7
2023-04-30T12:08:27.879Z,6
2023-04-30T12:18:59.194Z,7.9
2023-04-30T12:23:14.565Z,5.9
2023-04-30T12:27:27.094Z,12.4
2023-04-30T12:29:33.385Z,4.2
2023-04-30T12:31:39.682Z,8.3
2023-04-30T12:33:45.886Z,5.6
2023-04-30T12:35:52.163Z,8.3
2023-04-30T12:38:01.277Z,12
2023-04-30T12:40:07.569Z,4.1
2023-04-30T12:42:13.788Z,11.6
2023-04-30T12:44:20.082Z,8.8
2023-04-30T12:46:26.427Z,7
2023-04-30T12:48:32.589Z,6.7
2023-04-30T12:50:38.869Z,6.4
2023-04-30T12:52:48.006Z,11.1
2023-04-30T12:54:54.250Z,7.6
2023-04-30T12:57:00.493Z,13
2023-04-30T12:58:05.034Z,7.5
2023-04-30T13:00:11.320Z,7.1
2023-04-30T13:02:17.624Z,7
2023-04-30T13:12:51.731Z,6.3
2023-04-30T13:17:04.260Z,3.5
2023-04-30T13:23:25.890Z,8.1
2023-04-30T13:25:32.183Z,7.1
2023-04-30T13:27:38.426Z,2.3
2023-04-30T13:31:51.011Z,2.1
2023-04-30T13:33:57.216Z,2.9
2023-04-30T13:36:06.336Z,2.3
2023-04-30T13:38:12.609Z,5.5
2023-04-30T13:40:18.866Z,6
2023-04-30T13:42:25.130Z,3.6
2023-04-30T13:44:31.393Z,6.9
2023-04-30T13:46:37.660Z,4.9
2023-04-30T13:50:53.020Z,6.3
2023-04-30T13:52:59.296Z,9.2
2023-04-30T13:55:05.570Z,2.2
2023-04-30T13:58:16.366Z,5.7
2023-04-30T14:00:22.664Z,2.5
2023-04-30T14:02:28.955Z,2.6
2023-04-30T14:04:38.030Z,2.4
2023-04-30T14:17:15.592Z,4.1
2023-04-30T14:19:24.740Z,12.2
2023-04-30T14:25:43.523Z,2.2
2023-04-30T14:32:02.341Z,1.7
2023-04-30T14:34:11.378Z,1.3
2023-04-30T14:38:23.887Z,2.5
2023-04-30T14:40:30.114Z,1.2
2023-04-30T14:46:48.902Z,5.3
2023-04-30T14:48:58.056Z,3.8
2023-04-30T14:51:04.273Z,2.5
2023-04-30T14:53:10.547Z,11.7
2023-04-30T15:11:08.038Z,3
2023-04-30T15:13:14.299Z,3.9
2023-04-30T15:19:35.908Z,2
2023-04-30T15:23:48.434Z,7.7
2023-04-30T15:28:00.989Z,2
2023-04-30T15:30:07.246Z,1.6
2023-04-30T15:32:16.348Z,15.4
2023-04-30T15:36:28.873Z,3.6
2023-04-30T15:38:35.112Z,3.6
2023-04-30T15:40:41.405Z,1.9
2023-04-30T15:42:47.645Z,1.7
2023-04-30T15:44:53.884Z,1.4
2023-04-30T15:47:03.265Z,1.4
2023-04-30T15:49:09.265Z,3.2
2023-04-30T15:51:15.500Z,0.9
2023-04-30T15:53:35.616Z,1.9
2023-04-30T15:55:41.860Z,6.4
2023-04-30T15:59:57.574Z,9.7
2023-04-30T16:04:09.729Z,2.6
2023-04-30T16:10:28.441Z,2.8
2023-04-30T16:14:43.747Z,1.6
2023-04-30T16:16:50.034Z,3.8
2023-04-30T16:18:56.244Z,3.6
2023-04-30T16:23:08.738Z,0.8
2023-04-30T16:27:21.738Z,3.7
2023-04-30T16:29:30.818Z,3.6
2023-04-30T16:31:37.120Z,8.1
2023-04-30T16:33:43.328Z,2.1
2023-04-30T16:35:49.668Z,10.9
2023-04-30T16:37:55.877Z,6.1
2023-04-30T16:40:02.155Z,6.1
2023-04-30T16:42:08.425Z,5.5
2023-04-30T16:44:17.530Z,9.3
2023-04-30T16:49:34.850Z,5.1
2023-04-30T16:53:47.376Z,5.9
2023-04-30T16:55:53.628Z,4.8
2023-04-30T16:58:02.706Z,5.1
2023-04-30T17:02:15.477Z,5.1
2023-04-30T17:08:33.916Z,5.4
2023-04-30T17:25:26.647Z,1.8
2023-04-30T17:27:35.728Z,1.5
2023-04-30T17:29:41.978Z,3.4
2023-04-30T17:33:54.440Z,3.3
2023-04-30T17:36:00.704Z,3.3
2023-04-30T17:38:06.907Z,3.9
2023-04-30T17:42:22.244Z,1.5
2023-04-30T17:44:28.488Z,2
2023-04-30T17:47:39.309Z,3.1
2023-04-30T17:51:51.807Z,3.1
2023-04-30T17:56:07.179Z,2.6
2023-04-30T17:58:13.426Z,4.8
2023-04-30T18:00:19.714Z,5.6
2023-04-30T18:08:44.817Z,3.4
2023-04-30T18:10:53.948Z,5.6
2023-04-30T18:13:00.223Z,4.4
2023-04-30T18:15:06.501Z,4.4
2023-04-30T18:17:12.800Z,4.4
2023-04-30T18:21:25.393Z,5.9
2023-04-30T18:23:31.677Z,4.2
2023-04-30T18:34:05.980Z,7.8
2023-04-30T18:42:33.997Z,3.8
2023-04-30T18:44:40.299Z,7
2023-04-30T18:45:44.951Z,6.6
2023-04-30T18:47:51.207Z,8.8
2023-04-30T18:49:57.600Z,3.8
2023-04-30T18:52:03.769Z,6.9
2023-04-30T19:00:31.778Z,9.2
2023-04-30T19:02:38.190Z,5
2023-04-30T19:04:44.373Z,3.3
2023-04-30T19:06:50.690Z,6.1
2023-04-30T19:11:06.102Z,4.1
2023-04-30T19:25:53.026Z,2.6
2023-04-30T19:27:59.314Z,2.7
2023-04-30T19:30:05.624Z,4.5
2023-04-30T19:32:12.010Z,4.7
2023-04-30T19:34:18.199Z,3.5
2023-04-30T19:38:33.636Z,10.3
2023-04-30T19:40:39.966Z,5.5
2023-04-30T19:42:46.239Z,14.3
2023-04-30T19:47:12.789Z,10.7
2023-04-30T19:49:19.083Z,6.8
2023-04-30T19:51:28.215Z,7.7
2023-04-30T19:53:34.509Z,8.7
2023-04-30T19:55:41.528Z,11.6
2023-04-30T19:57:47.710Z,6.4
2023-04-30T20:02:00.401Z,5.8
2023-04-30T20:04:06.932Z,5
2023-04-30T20:06:15.826Z,9.4
2023-04-30T20:08:22.044Z,7.6
2023-04-30T20:10:28.308Z,12.7
2023-04-30T20:12:34.577Z,5.8
2023-04-30T20:14:40.877Z,13.7
2023-04-30T20:16:47.221Z,9.4
2023-04-30T20:18:53.493Z,7.9
2023-04-30T20:21:02.599Z,8.2
2023-04-30T20:23:08.899Z,8.7
2023-04-30T20:25:15.179Z,11.3
2023-04-30T20:27:21.468Z,12.8
2023-04-30T20:35:49.493Z,5.2
2023-04-30T20:37:55.736Z,12.8
2023-04-30T20:40:02.040Z,8.2
2023-04-30T20:41:06.611Z,5.9
2023-04-30T20:45:19.166Z,7.4
2023-04-30T20:49:34.573Z,4
2023-04-30T20:51:40.866Z,11.7
2023-04-30T20:53:47.140Z,14.6
2023-04-30T20:55:53.423Z,9.5
2023-04-30T20:57:59.720Z,17.1
2023-04-30T21:00:06.030Z,4
2023-04-30T21:02:12.326Z,9
2023-04-30T21:06:27.950Z,5.9
2023-04-30T21:10:40.256Z,10.6
2023-04-30T21:12:46.569Z,5.9
2023-04-30T21:14:52.832Z,9.7
2023-04-30T21:23:20.797Z,5.8
2023-04-30T21:27:33.349Z,17.1
2023-04-30T21:36:01.296Z,10
2023-04-30T21:43:24.648Z,6.7
2023-04-30T21:56:05.123Z,7.4
2023-04-30T22:04:33.139Z,7.6
2023-04-30T22:06:39.410Z,8.2
2023-04-30T22:15:04.502Z,7.4
2023-04-30T22:17:13.519Z,15.2
2023-04-30T22:19:19.825Z,9
2023-04-30T22:23:32.364Z,15.1
2023-04-30T22:25:38.643Z,9.7
2023-04-30T22:27:44.920Z,22.4
2023-04-30T22:29:51.190Z,9
2023-04-30T22:32:01.976Z,8.6
2023-04-30T22:34:09.679Z,20.9
2023-04-30T22:37:20.453Z,9.8
2023-04-30T22:58:25.990Z,9.2
2023-04-30T23:02:41.388Z,9.9
2023-04-30T23:04:47.599Z,10.8
2023-04-30T23:09:00.162Z,7.9
2023-04-30T23:11:06.418Z,8.4
2023-04-30T23:13:12.719Z,12.1
2023-04-30T23:15:21.770Z,14
2023-04-30T23:17:28.075Z,9
2023-04-30T23:19:34.280Z,15.3
2023-04-30T23:21:40.543Z,9.7
2023-04-30T23:23:46.825Z,11.1
2023-04-30T23:25:53.102Z,18.6
2023-04-30T23:27:59.360Z,14.5
2023-04-30T23:30:08.421Z,8.1
2023-04-30T23:32:14.768Z,11.9
2023-04-30T23:38:53.141Z,10.8
2023-04-30T23:40:59.392Z,16.8
2023-04-30T23:43:08.458Z,6.7
2023-04-30T23:49:27.239Z,23.7
2023-04-30T23:51:33.507Z,12.9
2023-04-30T23:53:39.734Z,12.6
2023-04-30T23:55:45.999Z,20.7
